.
WxDataArchive / Data Records for 2015-07-21
2015-07-20 July 2015 2015-07-22

Data Records for Tuesday, 21 July 2015

Time	Temp	Chill	HIndex	Humid	Dewpt	 Wind 	HiWind	WindDir	Rain 	Barom
-----	----	-----	------	-----	-----	------	------	-------	-----	-----
00:00	73.0	73.0	73.0	81	66.8	0	0	---	0.00	29.704 
00:05	73.0	73.0	73.0	81	66.8	0	0	---	0.00	29.704 
00:10	73.0	73.0	73.0	81	66.8	0	0	---	0.00	29.704 
00:15	73.0	73.0	73.0	81	66.8	0	0	---	0.00	29.707 
00:20	73.0	73.0	73.0	81	66.8	0	0	---	0.00	29.707 
00:25	73.0	73.0	73.0	81	66.8	0	0	---	0.00	29.707 
00:30	73.0	73.0	73.0	82	67.2	0	0	---	0.00	29.708 
00:35	73.0	73.0	73.0	82	67.2	0	0	---	0.00	29.708 
00:40	73.0	73.0	73.0	83	67.5	0	0	---	0.00	29.708 
00:45	73.0	73.0	73.0	83	67.5	0	0	---	0.00	29.705 
00:50	73.0	73.0	73.0	84	67.9	0	0	---	0.00	29.705 
00:55	73.0	73.0	73.0	84	67.9	0	0	---	0.00	29.705 
01:00	73.0	73.0	73.0	84	67.9	0	0	---	0.00	29.706 
01:05	73.0	73.0	73.0	84	67.9	0	0	---	0.00	29.706 
01:10	73.0	73.0	73.0	85	68.2	0	0	---	0.00	29.706 
01:15	72.8	72.8	72.8	85	68.0	0	0	---	0.00	29.704 
01:20	72.8	72.8	72.8	85	68.0	0	0	---	0.00	29.704 
01:25	72.7	72.7	72.7	85	67.9	0	0	---	0.00	29.704 
01:30	72.7	72.7	72.7	86	68.3	0	0	---	0.00	29.704 
01:35	72.5	72.5	72.5	86	68.1	0	0	---	0.00	29.704 
01:40	72.5	72.5	72.5	86	68.1	0	0	---	0.00	29.704 
01:45	72.5	72.5	72.5	87	68.4	0	0	---	0.00	29.702 
01:50	72.5	72.5	72.5	87	68.4	0	0	---	0.00	29.702 
01:55	72.3	72.3	72.3	87	68.2	0	0	---	0.00	29.702 
02:00	72.3	72.3	72.3	87	68.2	0	0	---	0.00	29.698 
02:05	72.3	72.3	72.3	87	68.2	0	1	292	0.00	29.698 
02:10	72.3	72.3	72.3	88	68.5	0	1	292	0.00	29.698 
02:15	72.3	72.3	72.3	88	68.5	0	1	292	0.00	29.696 
02:20	72.5	72.5	72.5	87	68.4	0	1	292	0.00	29.696 
02:25	72.5	72.5	72.5	87	68.4	0	2	292	0.00	29.696 
02:30	72.7	72.7	72.7	87	68.6	0	2	292	0.00	29.694 
02:35	72.7	72.7	72.7	87	68.6	0	3	292	0.00	29.694 
02:40	72.8	72.8	72.8	87	68.7	0	1	292	0.00	29.694 
02:45	72.8	72.8	72.8	87	68.7	0	2	292	0.00	29.692 
02:50	72.8	72.8	72.8	87	68.7	0	2	292	0.00	29.692 
02:55	72.8	72.8	72.8	87	68.7	0	1	292	0.00	29.692 
03:00	72.8	72.8	72.8	87	68.7	1	3	292	0.00	29.690 
03:05	72.8	72.8	72.8	87	68.7	0	2	292	0.00	29.690 
03:10	72.7	72.7	72.7	87	68.6	0	1	292	0.00	29.690 
03:15	72.7	72.7	72.7	87	68.6	0	2	292	0.00	29.689 
03:20	72.5	72.5	72.5	87	68.4	0	2	292	0.00	29.689 
03:25	72.5	72.5	72.5	87	68.4	0	2	292	0.00	29.689 
03:30	72.3	72.3	72.3	87	68.2	0	1	292	0.00	29.690 
03:35	72.3	72.3	72.3	88	68.5	0	2	292	0.00	29.690 
03:40	72.3	72.3	72.3	88	68.5	0	1	292	0.00	29.690 
03:45	72.3	72.3	72.3	87	68.2	0	2	292	0.00	29.686 
03:50	72.3	72.3	72.3	87	68.2	1	3	292	0.00	29.686 
03:55	72.1	72.1	72.1	87	68.0	1	2	292	0.00	29.686 
04:00	72.1	72.1	72.1	87	68.0	0	1	292	0.00	29.688 
04:05	72.1	72.1	72.1	87	68.0	0	1	292	0.00	29.688 
04:10	72.0	72.0	72.0	87	67.9	0	2	292	0.00	29.688 
04:15	72.0	72.0	72.0	87	67.9	0	2	292	0.00	29.682 
04:20	71.8	71.8	71.8	87	67.7	1	2	292	0.00	29.682 
04:25	71.8	71.8	71.8	87	67.7	0	1	292	0.00	29.682 
04:30	71.8	71.8	71.8	87	67.7	0	2	292	0.00	29.676 
04:35	71.6	71.6	71.6	88	67.8	0	1	292	0.00	29.676 
04:40	71.5	71.5	71.5	88	67.7	0	1	292	0.00	29.676 
04:45	71.5	71.5	71.5	88	67.7	0	2	292	0.00	29.675 
04:50	71.3	71.3	71.3	88	67.6	0	2	292	0.00	29.675 
04:55	71.3	71.3	71.3	88	67.6	1	3	292	0.00	29.675 
05:00	71.1	71.1	71.1	88	67.4	0	2	292	0.00	29.673 
05:05	71.1	71.1	71.1	88	67.4	0	1	292	0.00	29.673 
05:10	70.9	70.9	70.9	89	67.5	0	1	292	0.00	29.673 
05:15	70.9	70.9	70.9	89	67.5	0	1	292	0.00	29.674 
05:20	70.8	70.8	70.8	89	67.4	0	0	---	0.00	29.674 
05:25	70.6	70.6	70.6	89	67.2	0	1	292	0.00	29.674 
05:30	70.4	70.4	70.4	90	67.3	0	1	292	0.00	29.678 
05:35	70.3	70.3	70.3	90	67.2	0	1	292	0.00	29.678 
05:40	70.3	70.3	70.3	90	67.2	0	1	292	0.00	29.678 
05:45	70.1	70.1	70.1	90	67.0	0	1	292	0.00	29.683 
05:50	70.1	70.1	70.1	91	67.3	0	2	292	0.00	29.683 
05:55	69.9	69.9	69.9	91	67.1	0	1	292	0.00	29.683 
06:00	69.9	69.9	69.9	91	67.1	0	1	292	0.00	29.685 
06:05	69.8	69.8	69.8	91	67.0	0	1	292	0.00	29.685 
06:10	69.6	69.6	69.6	91	66.8	0	1	292	0.00	29.685 
06:15	69.6	69.6	69.6	92	67.2	0	1	292	0.00	29.689 
06:20	69.4	69.4	69.4	92	67.0	0	0	---	0.00	29.689 
06:25	69.4	69.4	69.4	92	67.0	0	0	---	0.00	29.689 
06:30	69.3	69.3	69.3	92	66.9	0	0	---	0.00	29.694 
06:35	69.3	69.3	69.3	92	66.9	0	0	---	0.00	29.694 
06:40	69.1	69.1	69.1	92	66.7	0	1	292	0.00	29.694 
06:45	69.1	69.1	69.1	92	66.7	0	1	292	0.00	29.701 
06:50	69.1	69.1	69.1	92	66.7	0	1	292	0.00	29.701 
06:55	69.1	69.1	69.1	92	66.7	0	1	292	0.00	29.701 
07:00	69.1	69.1	69.1	92	66.7	0	1	292	0.00	29.706 
07:05	69.3	69.3	69.3	92	66.9	0	1	292	0.00	29.706 
07:10	69.3	69.3	69.3	92	66.9	0	1	292	0.00	29.706 
07:15	69.4	69.4	69.4	92	67.0	0	2	292	0.00	29.710 
07:20	69.4	69.4	69.4	92	67.0	0	1	292	0.00	29.710 
07:25	69.6	69.6	69.6	92	67.2	1	2	292	0.00	29.710 
07:30	69.8	69.8	69.8	92	67.4	0	2	292	0.00	29.715 
07:35	69.8	69.8	69.8	92	67.4	0	1	292	0.00	29.715 
07:40	69.9	69.9	69.9	91	67.1	0	2	292	0.00	29.715 
07:45	69.9	69.9	69.9	91	67.1	0	2	292	0.00	29.723 
07:50	70.1	70.1	70.1	91	67.3	0	1	292	0.00	29.723 
07:55	70.1	70.1	70.1	90	67.0	0	1	292	0.00	29.723 
08:00	70.1	70.1	70.1	90	67.0	0	2	292	0.00	29.725 
08:05	70.1	70.1	70.1	89	66.7	0	2	292	0.00	29.725 
08:10	70.3	70.3	70.3	89	66.9	0	2	292	0.00	29.725 
08:15	70.3	70.3	70.3	89	66.9	0	2	292	0.00	29.730 
08:20	70.3	70.3	70.3	88	66.6	1	2	292	0.00	29.730 
08:25	70.3	70.3	70.3	88	66.6	1	2	292	0.00	29.730 
08:30	70.4	70.4	70.4	88	66.7	1	2	292	0.00	29.742 
08:35	70.8	70.8	70.8	88	67.1	1	2	292	0.00	29.742 
08:40	70.9	70.9	70.9	87	66.8	1	3	292	0.00	29.742 
08:45	70.9	70.9	70.9	87	66.8	0	1	292	0.00	29.745 
08:50	71.3	71.3	71.3	87	67.2	0	3	292	0.00	29.745 
08:55	71.6	71.6	71.6	86	67.2	0	3	292	0.00	29.745 
09:00	71.8	71.8	71.8	83	66.3	2	6	338	0.00	29.749 
09:05	72.0	72.0	72.0	82	66.2	1	3	68	0.00	29.749 
09:10	72.1	72.1	72.1	81	65.9	0	3	68	0.00	29.749 
09:15	72.5	72.5	72.5	80	66.0	0	3	68	0.00	29.757 
09:20	72.8	72.8	72.8	78	65.5	1	5	135	0.00	29.757 
09:25	72.8	72.8	72.8	77	65.2	1	3	0	0.00	29.757 
09:30	73.5	73.5	73.5	77	65.8	0	3	90	0.00	29.757 
09:35	73.9	73.9	73.9	73	64.7	1	3	90	0.00	29.757 
09:40	74.4	74.4	74.4	75	65.9	0	3	45	0.00	29.757 
09:45	74.6	74.6	74.6	73	65.4	1	4	270	0.00	29.762 
09:50	74.7	74.7	74.7	71	64.7	1	4	270	0.00	29.762 
09:55	74.7	74.7	74.7	70	64.2	1	4	338	0.00	29.762 
10:00	74.9	74.9	74.9	71	64.8	0	2	315	0.00	29.768 
10:05	74.9	74.9	74.9	71	64.8	1	5	315	0.00	29.768 
10:10	75.1	75.1	76.9	69	64.2	1	4	135	0.00	29.768 
10:15	75.4	75.4	77.2	68	64.1	1	3	270	0.00	29.773 
10:20	75.4	75.4	77.2	68	64.1	1	2	270	0.00	29.773 
10:25	76.1	76.1	77.8	68	64.8	0	4	135	0.00	29.773 
10:30	76.5	76.5	78.3	65	63.8	2	5	112	0.00	29.772 
10:35	76.1	76.1	77.9	67	64.3	0	3	270	0.00	29.772 
10:40	76.0	76.0	77.9	65	63.4	1	4	270	0.00	29.772 
10:45	75.8	75.8	77.7	66	63.6	1	5	270	0.00	29.772 
10:50	75.6	75.6	77.5	65	63.0	2	6	338	0.00	29.772 
10:55	75.8	75.8	77.7	66	63.6	1	5	338	0.00	29.772 
11:00	76.5	76.5	78.3	66	64.3	1	4	112	0.00	29.775 
11:05	77.2	77.2	79.0	62	63.2	1	6	112	0.00	29.775 
11:10	77.4	77.4	79.1	61	62.9	1	6	112	0.00	29.775 
11:15	77.9	77.9	79.5	57	61.4	1	5	90	0.00	29.780 
11:20	78.3	78.3	79.9	59	62.8	1	6	90	0.00	29.780 
11:25	78.5	78.5	80.0	58	62.5	1	4	112	0.00	29.780 
11:30	78.6	78.6	80.2	59	63.1	1	5	135	0.00	29.787 
11:35	78.5	78.5	80.0	57	62.0	1	4	315	0.00	29.787 
11:40	78.1	78.1	79.4	52	59.0	1	2	315	0.00	29.787 
11:45	78.1	78.1	79.6	56	61.1	1	5	338	0.00	29.791 
11:50	78.3	78.3	79.5	51	58.7	2	6	338	0.00	29.791 
11:55	77.9	77.9	79.2	51	58.3	2	5	292	0.00	29.791 
12:00	78.1	78.1	79.5	55	60.6	1	3	112	0.00	29.794 
12:05	77.9	77.9	79.3	52	58.8	3	5	292	0.00	29.794 
12:10	77.7	77.7	79.2	53	59.2	2	6	292	0.00	29.794 
12:15	77.9	77.9	79.3	54	59.9	1	6	135	0.00	29.804 
12:20	77.7	77.7	79.2	53	59.2	2	5	315	0.00	29.804 
12:25	77.6	77.6	79.0	51	58.0	3	7	292	0.00	29.804 
12:30	77.6	77.6	79.0	52	58.6	2	6	338	0.00	29.806 
12:35	77.6	77.6	79.0	50	57.5	2	4	338	0.00	29.806 
12:40	77.7	77.7	79.2	53	59.2	2	5	315	0.00	29.806 
12:45	77.9	77.9	79.3	52	58.8	2	4	0	0.00	29.806 
12:50	77.9	77.9	79.3	53	59.4	2	5	0	0.00	29.806 
12:55	77.9	77.9	79.3	52	58.8	2	5	292	0.00	29.806 
13:00	77.9	77.9	79.1	49	57.2	2	5	292	0.00	29.807 
13:05	77.9	77.9	79.2	50	57.7	2	6	270	0.00	29.807 
13:10	78.1	78.1	79.3	50	57.9	2	6	112	0.00	29.807 
13:15	78.5	78.5	79.5	49	57.7	2	4	248	0.00	29.806 
13:20	78.1	78.1	79.3	50	57.9	2	9	315	0.00	29.806 
13:25	78.1	78.1	79.4	51	58.5	2	6	338	0.00	29.806 
13:30	78.1	78.1	79.2	47	56.2	3	5	292	0.00	29.807 
13:35	78.3	78.3	79.4	50	58.1	2	6	292	0.00	29.807 
13:40	77.9	77.9	79.2	50	57.7	2	7	338	0.00	29.807 
13:45	77.7	77.7	79.1	51	58.1	1	4	315	0.00	29.807 
13:50	77.7	77.7	78.9	48	56.4	2	4	315	0.00	29.807 
13:55	78.3	78.3	79.4	50	58.1	3	6	292	0.00	29.807 
14:00	78.5	78.5	79.6	51	58.8	3	6	315	0.00	29.807 
14:05	78.8	78.8	79.7	49	58.0	2	5	315	0.00	29.807 
14:10	78.6	78.6	79.4	46	56.1	3	6	270	0.00	29.807 
14:15	78.6	78.6	79.5	48	57.2	2	5	292	0.00	29.804 
14:20	78.6	78.6	79.6	49	57.8	2	6	338	0.00	29.804 
14:25	78.3	78.3	79.3	47	56.4	2	9	338	0.00	29.804 
14:30	78.3	78.3	79.3	47	56.4	2	5	338	0.00	29.807 
14:35	78.3	78.3	79.2	45	55.2	2	5	292	0.00	29.807 
14:40	78.1	78.1	78.9	43	53.8	3	6	315	0.00	29.807 
14:45	77.9	77.9	78.7	41	52.3	3	6	315	0.00	29.807 
14:50	78.1	78.1	79.1	46	55.6	1	4	315	0.00	29.807 
14:55	78.5	78.5	79.3	45	55.4	2	7	22	0.00	29.807 
15:00	78.5	78.5	79.2	44	54.7	3	6	315	0.00	29.807 
15:05	78.5	78.5	79.3	45	55.4	2	6	270	0.00	29.807 
15:10	78.5	78.5	79.2	43	54.1	2	5	315	0.00	29.807 
15:15	78.5	78.5	79.2	43	54.1	2	5	315	0.00	29.812 
15:20	78.6	78.6	79.5	48	57.2	1	5	315	0.00	29.812 
15:25	78.6	78.6	79.4	46	56.1	2	5	315	0.00	29.812 
15:30	78.6	78.6	79.5	47	56.7	1	4	315	0.00	29.808 
15:35	78.5	78.5	79.2	43	54.1	3	9	315	0.00	29.808 
15:40	78.5	78.5	79.0	40	52.1	3	9	292	0.00	29.808 
15:45	78.5	78.5	78.9	38	50.8	3	6	292	0.00	29.817 
15:50	78.6	78.6	79.1	41	52.9	2	4	292	0.00	29.817 
15:55	78.5	78.5	79.2	43	54.1	1	5	22	0.00	29.817 
16:00	78.6	78.6	79.3	44	54.8	1	5	0	0.00	29.816 
16:05	78.8	78.8	79.3	42	53.7	1	4	0	0.00	29.816 
16:10	79.0	79.0	79.6	44	55.2	1	5	0	0.00	29.816 
16:15	79.2	79.2	79.5	41	53.4	2	5	315	0.00	29.814 
16:20	79.2	79.2	79.5	42	54.1	1	5	292	0.00	29.814 
16:25	79.0	79.0	79.4	41	53.3	3	6	338	0.00	29.814 
16:30	78.8	78.8	79.4	43	54.4	2	5	338	0.00	29.813 
16:35	78.8	78.8	79.4	43	54.4	2	5	270	0.00	29.813 
16:40	79.0	79.0	79.5	43	54.6	2	4	292	0.00	29.813 
16:45	79.4	79.4	79.8	44	55.6	1	4	292	0.00	29.809 
16:50	79.4	79.4	79.5	39	52.3	3	7	292	0.00	29.809 
16:55	79.0	79.0	79.3	40	52.6	2	5	315	0.00	29.809 
17:00	78.6	78.6	79.2	42	53.6	1	5	338	0.00	29.807 
17:05	78.8	78.8	79.2	40	52.4	2	6	292	0.00	29.807 
17:10	79.0	79.0	79.5	43	54.6	2	4	292	0.00	29.807 
17:15	79.0	79.0	79.4	41	53.3	2	5	270	0.00	29.808 
17:20	79.0	79.0	79.6	45	55.8	2	5	338	0.00	29.808 
17:25	79.2	79.2	79.5	41	53.4	2	5	292	0.00	29.808 
17:30	79.2	79.2	79.6	43	54.7	1	3	292	0.00	29.809 
17:35	79.4	79.4	79.8	43	54.9	1	5	292	0.00	29.809 
17:40	79.6	79.6	80.0	44	55.7	1	6	292	0.00	29.809 
17:45	79.0	79.0	79.6	45	55.8	2	5	338	0.00	29.810 
17:50	78.6	78.6	79.3	44	54.8	2	5	315	0.00	29.810 
17:55	78.3	78.3	79.1	44	54.6	2	6	292	0.00	29.810 
18:00	78.1	78.1	79.2	47	56.2	1	4	292	0.00	29.809 
18:05	78.1	78.1	79.1	46	55.6	1	4	315	0.00	29.809 
18:10	78.3	78.3	79.1	44	54.6	2	6	315	0.00	29.809 
18:15	77.9	77.9	78.9	44	54.2	3	5	315	0.00	29.812 
18:20	77.9	77.9	78.9	45	54.8	2	7	270	0.00	29.812 
18:25	77.7	77.7	78.8	44	54.0	2	5	315	0.00	29.812 
18:30	77.7	77.7	78.8	45	54.6	2	4	315	0.00	29.813 
18:35	77.7	77.7	78.8	44	54.0	1	3	315	0.00	29.813 
18:40	77.6	77.6	78.6	41	52.0	2	6	315	0.00	29.813 
18:45	77.4	77.4	78.5	42	52.5	2	5	270	0.00	29.816 
18:50	77.4	77.4	78.5	42	52.5	2	6	292	0.00	29.816 
18:55	77.2	77.2	78.4	42	52.3	2	5	292	0.00	29.816 
19:00	77.0	77.0	78.3	42	52.1	3	6	315	0.00	29.816 
19:05	76.8	76.8	78.3	43	52.6	2	6	270	0.00	29.816 
19:10	76.7	76.7	78.2	43	52.5	3	6	292	0.00	29.816 
19:15	76.5	76.5	78.1	42	51.7	2	5	315	0.00	29.815 
19:20	76.5	76.5	78.1	42	51.7	1	4	315	0.00	29.815 
19:25	76.3	76.3	78.0	41	50.8	2	5	315	0.00	29.815 
19:30	76.0	76.0	77.9	43	51.9	2	5	292	0.00	29.818 
19:35	76.0	76.0	78.0	45	53.1	1	4	315	0.00	29.818 
19:40	76.0	76.0	78.0	46	53.7	1	5	315	0.00	29.818 
19:45	75.8	75.8	77.8	43	51.7	3	5	315	0.00	29.821 
19:50	75.4	75.4	77.7	43	51.3	3	9	315	0.00	29.821 
19:55	75.3	75.3	77.7	45	52.5	2	4	315	0.00	29.821 
20:00	75.1	75.1	77.7	46	52.9	2	4	292	0.00	29.826 
20:05	74.9	74.9	74.9	45	52.1	2	5	292	0.00	29.826 
20:10	74.6	74.6	74.6	46	52.4	2	5	292	0.00	29.826 
20:15	74.2	74.2	74.2	45	51.5	2	4	292	0.00	29.828 
20:20	74.0	74.0	74.0	46	51.9	1	3	292	0.00	29.828 
20:25	73.7	73.7	73.7	46	51.6	2	7	292	0.00	29.828 
20:30	73.3	73.3	73.3	47	51.8	1	4	292	0.00	29.836 
20:35	73.0	73.0	73.0	48	52.1	0	2	292	0.00	29.836 
20:40	72.7	72.7	72.7	47	51.3	1	3	292	0.00	29.836 
20:45	72.3	72.3	72.3	47	50.9	1	3	292	0.00	29.842 
20:50	72.1	72.1	72.1	46	50.2	1	2	292	0.00	29.842 
20:55	72.0	72.0	72.0	46	50.1	1	3	292	0.00	29.842 
21:00	71.8	71.8	71.8	47	50.5	0	3	292	0.00	29.844 
21:05	71.5	71.5	71.5	46	49.6	1	4	292	0.00	29.844 
21:10	71.3	71.3	71.3	46	49.4	1	3	292	0.00	29.844 
21:15	71.1	71.1	71.1	47	49.8	0	1	292	0.00	29.844 
21:20	70.8	70.8	70.8	48	50.1	0	1	292	0.00	29.844 
21:25	70.4	70.4	70.4	49	50.3	0	1	292	0.00	29.844 
21:30	70.3	70.3	70.3	49	50.2	0	1	292	0.00	29.850 
21:35	70.1	70.1	70.1	50	50.6	0	1	292	0.00	29.850 
21:40	69.8	69.8	69.8	51	50.8	0	0	---	0.00	29.850 
21:45	69.4	69.4	69.4	52	51.0	0	0	---	0.00	29.858 
21:50	69.1	69.1	69.1	53	51.2	0	1	292	0.00	29.858 
21:55	68.8	68.8	68.8	53	51.0	0	1	292	0.00	29.858 
22:00	68.6	68.6	68.6	53	50.8	0	1	292	0.00	29.861 
22:05	68.4	68.4	68.4	54	51.1	0	1	292	0.00	29.861 
22:10	68.4	68.4	68.4	54	51.1	0	1	292	0.00	29.861 
22:15	68.3	68.3	68.3	55	51.5	0	1	292	0.00	29.865 
22:20	67.9	67.9	67.9	55	51.1	0	1	292	0.00	29.865 
22:25	67.8	67.8	67.8	56	51.5	0	0	---	0.00	29.865 
22:30	67.4	67.4	67.4	57	51.6	0	0	---	0.00	29.873 
22:35	67.1	67.1	67.1	58	51.8	0	1	292	0.00	29.873 
22:40	67.1	67.1	67.1	58	51.8	0	1	292	0.00	29.873 
22:45	66.9	66.9	66.9	58	51.6	0	1	292	0.00	29.875 
22:50	66.8	66.8	66.8	59	52.0	0	1	292	0.00	29.875 
22:55	66.6	66.6	66.6	59	51.8	0	0	---	0.00	29.875 
23:00	66.4	66.4	66.4	59	51.6	0	1	292	0.00	29.875 
23:05	66.3	66.3	66.3	60	52.0	0	1	292	0.00	29.875 
23:10	66.0	66.0	66.0	61	52.2	0	1	292	0.00	29.875 
23:15	65.8	65.8	65.8	62	52.4	0	0	---	0.00	29.875 
23:20	65.6	65.6	65.6	62	52.2	0	0	---	0.00	29.875 
23:25	65.3	65.3	65.3	63	52.4	0	0	---	0.00	29.875 
23:30	65.0	65.0	65.0	63	52.1	0	0	---	0.00	29.880 
23:35	64.7	64.7	64.7	65	52.7	0	0	---	0.00	29.880 
23:40	64.5	64.5	64.5	65	52.5	0	0	---	0.00	29.880 
23:45	64.3	64.3	64.3	65	52.3	0	0	---	0.00	29.884 
23:50	64.3	64.3	64.3	65	52.3	0	0	---	0.00	29.884 
23:55	64.3	64.3	64.3	65	52.3	0	0	---	0.00	29.884 

CoCoRaHS
IN-AL-39
A2 Web Hosting
Creative Commons License
GoDaddy
search engine by freefind advanced

loaded 2018-11-17 18:51:14 • last modified 2010-11-18 10:43:29
Privacy PolicyDisclaimer
• wx.awcolley.com is powered by PmWiki v.2002016 •
• all content (unless otherwise noted) © 2018 A W Colley